createdAt,value
2022-12-25T00:00:00.696Z,100082.02
2022-12-25T00:01:11.719Z,100085.50
2022-12-25T00:02:16.300Z,100084.59
2022-12-25T00:03:19.756Z,100087.38
2022-12-25T00:04:24.163Z,100084.70
2022-12-25T00:05:28.771Z,100089.09
2022-12-25T00:06:32.277Z,100088.24
2022-12-25T00:07:39.438Z,100091.72
2022-12-25T00:08:42.835Z,100087.33
2022-12-25T00:09:51.108Z,100095.14
2022-12-25T00:11:01.660Z,100084.81
2022-12-25T00:12:06.182Z,100092.94
2022-12-25T00:13:10.239Z,100084.22
2022-12-25T00:14:13.821Z,100096.47
2022-12-25T00:15:16.510Z,100088.55
2022-12-25T00:16:21.859Z,100095.56
2022-12-25T00:17:25.263Z,100093.69
2022-12-25T00:18:28.571Z,100097.27
2022-12-25T00:19:31.451Z,100096.47
2022-12-25T00:20:34.866Z,100098.23
2022-12-25T00:21:38.156Z,100106.27
2022-12-25T00:22:42.094Z,100102.08
2022-12-25T00:23:45.701Z,100094.98
2022-12-25T00:24:48.042Z,100098.41
2022-12-25T00:25:51.761Z,100099.62
2022-12-25T00:26:55.148Z,100105.94
2022-12-25T00:27:57.516Z,100104.81
2022-12-25T00:29:01.715Z,100101.22
2022-12-25T00:30:06.522Z,100109.14
2022-12-25T00:31:12.035Z,100107.43
2022-12-25T00:32:18.008Z,100106.52
2022-12-25T00:33:21.226Z,100116.16
2022-12-25T00:34:24.705Z,100113.80
2022-12-25T00:35:27.159Z,100109.71
2022-12-25T00:36:39.483Z,100108.80
2022-12-25T00:37:41.104Z,100107.03
2022-12-25T00:38:45.101Z,100109.71
2022-12-25T00:39:49.667Z,100107.89
2022-12-25T00:40:54.399Z,100112.94
2022-12-25T00:42:15.459Z,100112.94
2022-12-25T00:43:18.963Z,100117.52
2022-12-25T00:44:22.467Z,100114.77
2022-12-25T00:45:26.154Z,100108.61
2022-12-25T00:46:30.791Z,100115.00
2022-12-25T00:47:35.273Z,100107.14
2022-12-25T00:48:41.465Z,100114.09
2022-12-25T00:49:45.218Z,100112.44
2022-12-25T00:50:48.652Z,100110.88
2022-12-25T00:51:52.326Z,100114.41
2022-12-25T00:52:58.445Z,100115.27
2022-12-25T00:54:03.430Z,100114.30
2022-12-25T00:55:08.153Z,100108.85
2022-12-25T00:56:11.803Z,100116.88
2022-12-25T00:57:15.493Z,100114.60
2022-12-25T00:58:18.901Z,100110.98
2022-12-25T00:59:21.138Z,100108.16
2022-12-25T01:00:24.550Z,100114.30
2022-12-25T01:01:29.173Z,100109.87
2022-12-25T01:02:34.785Z,100110.77
2022-12-25T01:03:38.511Z,100115.21
2022-12-25T01:04:41.736Z,100114.20
2022-12-25T01:05:45.728Z,100114.05
2022-12-25T01:06:48.077Z,100123.48
2022-12-25T01:07:53.801Z,100117.38
2022-12-25T01:09:15.042Z,100122.47
2022-12-25T01:10:24.639Z,100118.23
2022-12-25T01:11:28.116Z,100114.66
2022-12-25T01:12:35.603Z,100113.19
2022-12-25T01:13:39.184Z,100117.78
2022-12-25T01:14:44.785Z,100110.98
2022-12-25T01:15:48.508Z,100119.76
2022-12-25T01:16:52.051Z,100113.69
2022-12-25T01:17:56.280Z,100116.47
2022-12-25T01:19:00.705Z,100119.34
2022-12-25T01:20:04.819Z,100121.06
2022-12-25T01:21:11.252Z,100123.52
2022-12-25T01:22:14.433Z,100122.92
2022-12-25T01:23:18.055Z,100121.91
2022-12-25T01:24:22.389Z,100126.40
2022-12-25T01:25:31.118Z,100122.82
2022-12-25T01:26:34.630Z,100124.63
2022-12-25T01:27:38.338Z,100125.34
2022-12-25T01:28:42.164Z,100121.66
2022-12-25T01:29:46.498Z,100126.20
2022-12-25T01:30:50.312Z,100126.05
2022-12-25T01:31:53.770Z,100128.61
2022-12-25T01:32:56.061Z,100120.75
2022-12-25T01:33:59.679Z,100120.80
2022-12-25T01:35:02.942Z,100118.23
2022-12-25T01:36:07.943Z,100124.33
2022-12-25T01:37:10.717Z,100130.53
2022-12-25T01:38:14.117Z,100127.00
2022-12-25T01:39:17.402Z,100125.00
2022-12-25T01:40:21.620Z,100138.11
2022-12-25T01:41:26.503Z,100123.08
2022-12-25T01:42:29.514Z,100131.53
2022-12-25T01:43:32.895Z,100130.62
2022-12-25T01:44:38.285Z,100126.10
2022-12-25T01:45:44.687Z,100131.19
2022-12-25T01:46:48.414Z,100131.19
2022-12-25T01:47:51.732Z,100129.88
2022-12-25T01:48:55.559Z,100129.83
2022-12-25T01:49:58.120Z,100131.48
2022-12-25T01:51:06.698Z,100127.41
2022-12-25T01:52:16.550Z,100138.65
2022-12-25T01:53:21.715Z,100137.45
2022-12-25T01:54:29.388Z,100135.92
2022-12-25T01:55:34.976Z,100137.58
2022-12-25T01:56:39.635Z,100139.11
2022-12-25T01:57:43.315Z,100131.88
2022-12-25T01:58:46.834Z,100133.55
2022-12-25T01:59:50.323Z,100133.55
2022-12-25T02:00:54.164Z,100133.76
2022-12-25T02:02:01.220Z,100131.34
2022-12-25T02:03:05.692Z,100132.09
2022-12-25T02:04:18.789Z,100131.94
2022-12-25T02:05:27.593Z,100130.78
2022-12-25T02:06:31.720Z,100138.65
2022-12-25T02:07:35.132Z,100134.51
2022-12-25T02:08:40.071Z,100133.59
2022-12-25T02:09:43.496Z,100139.70
2022-12-25T02:10:47.209Z,100138.89
2022-12-25T02:12:00.568Z,100139.80
2022-12-25T02:13:04.133Z,100142.27
2022-12-25T02:14:07.541Z,100142.37
2022-12-25T02:15:17.101Z,100138.89
2022-12-25T02:16:23.188Z,100132.25
2022-12-25T02:17:34.472Z,100137.50
2022-12-25T02:18:43.131Z,100137.58
2022-12-25T02:20:05.061Z,100141.83
2022-12-25T02:21:25.263Z,100136.48
2022-12-25T02:22:36.006Z,100137.12
2022-12-25T02:23:47.233Z,100144.14
2022-12-25T02:24:52.333Z,100148.53
2022-12-25T02:26:08.135Z,100144.03
2022-12-25T02:27:22.196Z,100149.44
2022-12-25T02:28:44.429Z,100147.83
2022-12-25T02:29:55.099Z,100147.88
2022-12-25T02:31:02.817Z,100147.98
2022-12-25T02:32:09.871Z,100151.41
2022-12-25T02:33:38.519Z,100150.90
2022-12-25T02:34:46.827Z,100147.37
2022-12-25T02:35:54.003Z,100145.16
2022-12-25T02:37:15.385Z,100149.48
2022-12-25T02:38:19.635Z,100147.78
2022-12-25T02:39:42.309Z,100146.92
2022-12-25T02:40:50.833Z,100156.89
2022-12-25T02:41:54.971Z,100150.95
2022-12-25T02:43:17.596Z,100151.52
2022-12-25T02:44:40.621Z,100153.88
2022-12-25T02:46:03.785Z,100149.38
2022-12-25T02:47:27.311Z,100153.72
2022-12-25T02:48:50.821Z,100151.47
2022-12-25T02:50:12.984Z,100155.85
2022-12-25T02:51:35.389Z,100156.70
2022-12-25T02:52:58.940Z,100158.47
2022-12-25T02:54:25.656Z,100161.09
2022-12-25T02:55:48.679Z,100167.25
2022-12-25T02:57:12.486Z,100164.77
2022-12-25T02:58:36.733Z,100163.09
2022-12-25T03:00:01.551Z,100160.42
2022-12-25T03:01:25.606Z,100165.72
2022-12-25T03:02:48.763Z,100169.95
2022-12-25T03:04:12.453Z,100171.82
2022-12-25T03:05:36.413Z,100170.20
2022-12-25T03:06:45.876Z,100168.45
2022-12-25T03:07:50.136Z,100167.48
2022-12-25T03:08:54.713Z,100172.78
2022-12-25T03:10:19.055Z,100173.69
2022-12-25T03:11:33.837Z,100171.17
2022-12-25T03:12:54.979Z,100171.82
2022-12-25T03:14:02.390Z,100170.16
2022-12-25T03:15:08.381Z,100168.45
2022-12-25T03:16:30.610Z,100171.45
2022-12-25T03:17:37.261Z,100176.36
2022-12-25T03:18:44.469Z,100184.22
2022-12-25T03:20:05.853Z,100180.89
2022-12-25T03:21:27.954Z,100180.89
2022-12-25T03:22:50.247Z,100189.52
2022-12-25T03:24:14.224Z,100188.98
2022-12-25T03:25:38.654Z,100187.98
2022-12-25T03:26:58.827Z,100186.03
2022-12-25T03:28:02.655Z,100182.84
2022-12-25T03:29:05.736Z,100182.14
2022-12-25T03:30:29.332Z,100195.23
2022-12-25T03:31:35.457Z,100196.05
2022-12-25T03:32:46.758Z,100194.94
2022-12-25T03:33:54.823Z,100190.42
2022-12-25T03:35:24.498Z,100184.22
2022-12-25T03:36:31.520Z,100193.91
2022-12-25T03:38:10.962Z,100196.42
2022-12-25T03:39:35.070Z,100199.95
2022-12-25T03:40:58.086Z,100199.14
2022-12-25T03:42:22.180Z,100212.30
2022-12-25T03:43:48.650Z,100202.86
2022-12-25T03:44:57.639Z,100202.80
2022-12-25T03:46:05.578Z,100204.48
2022-12-25T03:47:35.161Z,100205.34
2022-12-25T03:48:59.803Z,100210.67
2022-12-25T03:50:23.405Z,100205.48
2022-12-25T03:51:48.425Z,100209.63
2022-12-25T03:53:12.249Z,100209.53
2022-12-25T03:54:36.751Z,100208.05
2022-12-25T03:55:58.642Z,100211.58
2022-12-25T03:57:19.485Z,100218.39
2022-12-25T03:58:42.095Z,100225.68
2022-12-25T04:00:03.168Z,100218.88
2022-12-25T04:01:27.123Z,100214.30
2022-12-25T04:02:51.786Z,100217.59
2022-12-25T04:04:14.151Z,100215.25
2022-12-25T04:05:36.263Z,100216.69
2022-12-25T04:06:58.137Z,100219.63
2022-12-25T04:08:18.925Z,100220.86
2022-12-25T04:09:41.391Z,100216.30
2022-12-25T04:11:02.744Z,100218.24
2022-12-25T04:12:24.536Z,100220.81
2022-12-25T04:13:46.216Z,100226.34
2022-12-25T04:15:08.108Z,100218.48
2022-12-25T04:16:30.853Z,100228.97
2022-12-25T04:17:53.026Z,100223.67
2022-12-25T04:19:15.885Z,100230.53
2022-12-25T04:20:38.477Z,100223.48
2022-12-25T04:22:00.357Z,100220.05
2022-12-25T04:23:22.671Z,100232.30
2022-12-25T04:24:44.035Z,100234.59
2022-12-25T04:26:06.225Z,100229.53
2022-12-25T04:27:27.082Z,100241.02
2022-12-25T04:28:48.332Z,100241.88
2022-12-25T04:30:10.114Z,100237.44
2022-12-25T04:31:31.231Z,100245.25
2022-12-25T04:32:54.022Z,100240.80
2022-12-25T04:34:16.570Z,100246.89
2022-12-25T04:35:37.683Z,100253.16
2022-12-25T04:36:41.500Z,100247.70
2022-12-25T04:37:46.587Z,100246.16
2022-12-25T04:38:49.959Z,100243.41
2022-12-25T04:39:53.251Z,100249.47
2022-12-25T04:40:56.481Z,100246.80
2022-12-25T04:42:00.588Z,100244.22
2022-12-25T04:43:04.117Z,100252.08
2022-12-25T04:44:07.205Z,100246.89
2022-12-25T04:45:12.747Z,100251.45
2022-12-25T04:46:16.536Z,100250.64
2022-12-25T04:47:20.409Z,100249.78
2022-12-25T04:48:24.131Z,100257.69
2022-12-25T04:49:30.372Z,100256.02
2022-12-25T04:50:33.630Z,100263.02
2022-12-25T04:51:37.150Z,100261.12
2022-12-25T04:52:41.413Z,100269.08
2022-12-25T04:53:46.914Z,100267.27
2022-12-25T04:54:50.272Z,100267.41
2022-12-25T04:55:55.553Z,100267.50
2022-12-25T04:56:58.210Z,100270.60
2022-12-25T04:58:02.040Z,100261.98
2022-12-25T04:59:05.859Z,100270.79
2022-12-25T05:00:10.198Z,100268.31
2022-12-25T05:01:13.531Z,100265.69
2022-12-25T05:02:18.456Z,100273.64
2022-12-25T05:03:22.232Z,100270.02
2022-12-25T05:04:24.531Z,100266.55
2022-12-25T05:05:27.194Z,100274.17
2022-12-25T05:06:30.813Z,100275.03
2022-12-25T05:07:35.882Z,100278.66
2022-12-25T05:08:39.027Z,100279.46
2022-12-25T05:09:43.237Z,100280.51
2022-12-25T05:10:47.127Z,100280.36
2022-12-25T05:11:50.632Z,100275.94
2022-12-25T05:12:54.926Z,100280.95
2022-12-25T05:14:00.020Z,100276.98
2022-12-25T05:15:02.704Z,100285.70
2022-12-25T05:16:06.708Z,100287.59
2022-12-25T05:17:09.923Z,100282.53
2022-12-25T05:18:13.260Z,100286.82
2022-12-25T05:19:19.392Z,100284.94
2022-12-25T05:20:23.302Z,100286.60
2022-12-25T05:21:25.822Z,100291.20
2022-12-25T05:22:31.429Z,100297.22
2022-12-25T05:23:35.243Z,100291.84
2022-12-25T05:24:38.773Z,100296.95
2022-12-25T05:25:43.213Z,100298.75
2022-12-25T05:26:47.223Z,100301.55
2022-12-25T05:27:53.982Z,100303.31
2022-12-25T05:29:00.499Z,100299.84
2022-12-25T05:30:04.451Z,100301.68
2022-12-25T05:31:08.723Z,100298.08
2022-12-25T05:32:14.003Z,100309.59
2022-12-25T05:33:17.052Z,100304.13
2022-12-25T05:34:20.323Z,100300.52
2022-12-25T05:35:24.035Z,100305.80
2022-12-25T05:36:40.558Z,100304.94
2022-12-25T05:37:43.701Z,100311.98
2022-12-25T05:38:47.286Z,100310.48
2022-12-25T05:39:50.475Z,100308.73
2022-12-25T05:40:53.467Z,100300.70
2022-12-25T05:41:56.972Z,100309.33
2022-12-25T05:42:59.324Z,100319.03
2022-12-25T05:44:02.973Z,100319.12
2022-12-25T05:45:06.971Z,100315.64
2022-12-25T05:46:12.294Z,100313.62
2022-12-25T05:47:15.647Z,100320.66
2022-12-25T05:48:19.047Z,100320.66
2022-12-25T05:49:23.436Z,100324.91
2022-12-25T05:50:28.660Z,100319.12
2022-12-25T05:51:34.366Z,100320.97
2022-12-25T05:52:37.506Z,100320.11
2022-12-25T05:53:41.583Z,100324.19
2022-12-25T05:54:43.877Z,100330.20
2022-12-25T05:55:47.347Z,100330.20
2022-12-25T05:56:51.055Z,100334.71
2022-12-25T05:57:54.341Z,100330.59
2022-12-25T05:58:58.064Z,100327.92
2022-12-25T06:00:00.759Z,100335.73
2022-12-25T06:01:04.448Z,100333.34
2022-12-25T06:02:10.293Z,100340.30
2022-12-25T06:03:14.928Z,100338.49
2022-12-25T06:04:18.211Z,100347.00
2022-12-25T06:05:21.593Z,100338.49
2022-12-25T06:06:25.118Z,100337.55
2022-12-25T06:07:28.497Z,100337.59
2022-12-25T06:08:30.748Z,100340.16
2022-12-25T06:09:34.817Z,100341.11
2022-12-25T06:10:38.451Z,100339.52
2022-12-25T06:11:42.879Z,100344.38
2022-12-25T06:12:46.021Z,100336.47
2022-12-25T06:13:51.679Z,100349.58
2022-12-25T06:14:57.021Z,100346.86
2022-12-25T06:16:00.572Z,100343.48
2022-12-25T06:17:03.955Z,100346.91
2022-12-25T06:18:08.786Z,100345.06
2022-12-25T06:19:13.871Z,100353.64
2022-12-25T06:20:17.385Z,100351.24
2022-12-25T06:21:19.688Z,100349.73
2022-12-25T06:22:22.896Z,100352.19
2022-12-25T06:23:29.126Z,100363.74
2022-12-25T06:24:32.488Z,100357.55
2022-12-25T06:25:44.371Z,100360.30
2022-12-25T06:26:47.468Z,100361.25
2022-12-25T06:27:53.473Z,100363.78
2022-12-25T06:28:58.878Z,100363.88
2022-12-25T06:30:01.971Z,100358.59
2022-12-25T06:31:13.545Z,100367.35
2022-12-25T06:32:20.768Z,100363.48
2022-12-25T06:33:23.826Z,100365.59
2022-12-25T06:34:27.892Z,100375.16
2022-12-25T06:35:31.702Z,100372.45
2022-12-25T06:36:36.057Z,100366.58
2022-12-25T06:37:39.443Z,100369.24
2022-12-25T06:38:44.011Z,100373.05
2022-12-25T06:39:47.914Z,100379.06
2022-12-25T06:40:50.382Z,100380.09
2022-12-25T06:41:53.985Z,100375.63
2022-12-25T06:42:58.460Z,100377.38
2022-12-25T06:44:03.711Z,100380.09
2022-12-25T06:45:06.584Z,100381.08
2022-12-25T06:46:13.138Z,100377.92
2022-12-25T06:47:16.511Z,100374.32
2022-12-25T06:48:19.912Z,100376.89
2022-12-25T06:49:24.941Z,100376.73
2022-12-25T06:50:27.448Z,100384.71
2022-12-25T06:51:33.508Z,100386.47
2022-12-25T06:52:38.074Z,100392.61
2022-12-25T06:53:41.084Z,100384.71
2022-12-25T06:54:44.314Z,100393.19
2022-12-25T06:55:47.062Z,100391.66
2022-12-25T06:56:51.827Z,100384.83
2022-12-25T06:57:59.343Z,100389.95
2022-12-25T06:59:06.362Z,100396.13
2022-12-25T07:00:13.868Z,100397.06
2022-12-25T07:01:19.356Z,100401.52
2022-12-25T07:02:26.313Z,100398.86
2022-12-25T07:03:30.829Z,100407.70
2022-12-25T07:04:41.749Z,100400.75
2022-12-25T07:05:46.620Z,100407.85
2022-12-25T07:06:50.300Z,100405.90
2022-12-25T07:07:54.390Z,100405.20
2022-12-25T07:08:58.385Z,100414.70
2022-12-25T07:10:01.669Z,100403.44
2022-12-25T07:11:06.335Z,100410.31
2022-12-25T07:12:24.047Z,100417.31
2022-12-25T07:13:27.701Z,100410.52
2022-12-25T07:14:30.401Z,100412.86
2022-12-25T07:15:33.621Z,100409.26
2022-12-25T07:16:41.838Z,100421.61
2022-12-25T07:17:45.355Z,100415.75
2022-12-25T07:18:47.978Z,100414.06
2022-12-25T07:19:50.548Z,100421.02
2022-12-25T07:20:57.266Z,100416.72
2022-12-25T07:22:02.461Z,100424.66
2022-12-25T07:23:07.761Z,100429.77
2022-12-25T07:24:10.412Z,100413.33
2022-12-25T07:25:13.944Z,100418.41
2022-12-25T07:26:20.042Z,100421.92
2022-12-25T07:27:23.654Z,100427.75
2022-12-25T07:28:33.536Z,100436.69
2022-12-25T07:29:37.032Z,100430.59
2022-12-25T07:30:40.529Z,100426.22
2022-12-25T07:31:44.229Z,100425.12
2022-12-25T07:32:50.247Z,100440.16
2022-12-25T07:33:56.804Z,100439.27
2022-12-25T07:35:00.198Z,100434.78
2022-12-25T07:36:07.819Z,100438.17
2022-12-25T07:37:14.414Z,100443.60
2022-12-25T07:38:17.597Z,100443.80
2022-12-25T07:39:22.668Z,100450.79
2022-12-25T07:40:26.361Z,100460.09
2022-12-25T07:41:30.307Z,100454.98
2022-12-25T07:42:35.597Z,100446.45
2022-12-25T07:43:37.854Z,100458.49
2022-12-25T07:44:42.217Z,100452.55
2022-12-25T07:45:50.756Z,100457.75
2022-12-25T07:46:55.280Z,100455.20
2022-12-25T07:48:04.345Z,100449.97
2022-12-25T07:49:03.942Z,100442.08
2022-12-25T07:50:07.641Z,100452.62
2022-12-25T07:51:12.932Z,100451.73
2022-12-25T07:52:16.333Z,100455.16
2022-12-25T07:53:19.731Z,100451.77
2022-12-25T07:54:23.344Z,100462.16
2022-12-25T07:55:27.159Z,100460.48
2022-12-25T07:56:30.520Z,100463.99
2022-12-25T07:57:33.125Z,100471.91
2022-12-25T07:58:37.357Z,100470.09
2022-12-25T07:59:40.763Z,100478.73
2022-12-25T08:00:44.916Z,100470.05
2022-12-25T08:01:50.192Z,100474.39
2022-12-25T08:02:54.957Z,100478.57
2022-12-25T08:03:59.037Z,100470.91
2022-12-25T08:05:04.138Z,100473.56
2022-12-25T08:06:09.209Z,100478.98
2022-12-25T08:07:12.498Z,100479.70
2022-12-25T08:08:17.809Z,100478.05
2022-12-25T08:09:21.394Z,100478.65
2022-12-25T08:10:24.703Z,100473.56
2022-12-25T08:11:30.601Z,100476.86
2022-12-25T08:12:34.055Z,100474.34
2022-12-25T08:13:38.026Z,100475.39
2022-12-25T08:14:42.060Z,100475.39
2022-12-25T08:15:45.163Z,100478.98
2022-12-25T08:16:48.677Z,100476.22
2022-12-25T08:17:54.313Z,100481.42
2022-12-25T08:18:57.433Z,100479.80
2022-12-25T08:20:02.081Z,100474.46
2022-12-25T08:21:09.975Z,100479.70
2022-12-25T08:22:12.630Z,100478.91
2022-12-25T08:23:17.707Z,100483.14
2022-12-25T08:24:21.433Z,100477.15
2022-12-25T08:25:24.835Z,100486.66
2022-12-25T08:26:27.595Z,100485.75
2022-12-25T08:27:32.888Z,100484.07
2022-12-25T08:28:36.804Z,100487.66
2022-12-25T08:29:40.109Z,100490.31
2022-12-25T08:30:44.765Z,100485.04
2022-12-25T08:31:47.889Z,100494.01
2022-12-25T08:32:50.038Z,100482.64
2022-12-25T08:33:53.941Z,100485.86
2022-12-25T08:34:57.133Z,100489.38
2022-12-25T08:36:03.964Z,100487.62
2022-12-25T08:37:07.070Z,100487.55
2022-12-25T08:38:10.745Z,100484.18
2022-12-25T08:39:14.263Z,100485.04
2022-12-25T08:40:17.455Z,100480.66
2022-12-25T08:41:21.075Z,100493.57
2022-12-25T08:42:26.470Z,100488.48
2022-12-25T08:43:30.174Z,100500.41
2022-12-25T08:44:34.714Z,100497.91
2022-12-25T08:45:37.824Z,100496.00
2022-12-25T08:46:42.591Z,100496.90
2022-12-25T08:47:46.166Z,100500.16
2022-12-25T08:48:49.971Z,100489.75
2022-12-25T08:49:53.493Z,100504.60
2022-12-25T08:50:56.810Z,100505.28
2022-12-25T08:51:59.551Z,100501.16
2022-12-25T08:53:02.880Z,100506.55
2022-12-25T08:54:08.135Z,100496.72
2022-12-25T08:55:14.148Z,100502.70
2022-12-25T08:56:18.656Z,100502.66
2022-12-25T08:57:24.064Z,100503.48
2022-12-25T08:58:28.221Z,100510.52
2022-12-25T08:59:31.613Z,100507.00
2022-12-25T09:00:35.850Z,100506.95
2022-12-25T09:01:39.343Z,100514.18
2022-12-25T09:02:43.088Z,100512.16
2022-12-25T09:03:46.727Z,100506.29
2022-12-25T09:04:50.092Z,100513.24
2022-12-25T09:05:53.800Z,100523.90
2022-12-25T09:06:59.732Z,100516.05
2022-12-25T09:08:02.395Z,100521.36
2022-12-25T09:09:05.759Z,100513.47
2022-12-25T09:10:09.597Z,100523.79
2022-12-25T09:11:18.617Z,100516.87
2022-12-25T09:12:28.298Z,100522.22
2022-12-25T09:13:31.789Z,100517.91
2022-12-25T09:14:35.317Z,100523.08
2022-12-25T09:15:38.245Z,100528.17
2022-12-25T09:16:41.533Z,100520.61
2022-12-25T09:17:45.957Z,100517.05
2022-12-25T09:18:49.939Z,100515.94
2022-12-25T09:19:52.511Z,100510.59
2022-12-25T09:21:00.845Z,100517.66
2022-12-25T09:22:07.148Z,100516.80
2022-12-25T09:23:13.962Z,100517.66
2022-12-25T09:24:15.623Z,100516.91
2022-12-25T09:25:20.307Z,100507.44
2022-12-25T09:26:23.887Z,100516.98
2022-12-25T09:27:27.592Z,100515.04
2022-12-25T09:28:30.886Z,100527.16
2022-12-25T09:29:34.300Z,100521.06
2022-12-25T09:30:38.034Z,100516.76
2022-12-25T09:31:41.519Z,100513.17
2022-12-25T09:32:45.676Z,100517.28
2022-12-25T09:33:49.824Z,100521.73
2022-12-25T09:34:53.393Z,100516.57
2022-12-25T09:35:58.341Z,100519.91
2022-12-25T09:37:01.551Z,100516.69
2022-12-25T09:38:04.952Z,100519.86
2022-12-25T09:39:08.059Z,100520.64
2022-12-25T09:40:13.449Z,100521.59
2022-12-25T09:41:36.041Z,100519.11
2022-12-25T09:42:38.817Z,100527.94
2022-12-25T09:43:44.198Z,100530.27
2022-12-25T09:44:52.224Z,100535.58
2022-12-25T09:45:56.064Z,100535.46
2022-12-25T09:47:03.937Z,100540.73
2022-12-25T09:48:07.010Z,100540.77
2022-12-25T09:49:18.133Z,100544.10
2022-12-25T09:50:23.601Z,100539.84
2022-12-25T09:51:27.538Z,100536.20
2022-12-25T09:52:38.873Z,100538.52
2022-12-25T09:53:46.892Z,100543.02
2022-12-25T09:54:51.966Z,100540.44
2022-12-25T09:56:05.492Z,100542.90
2022-12-25T09:57:11.168Z,100548.30
2022-12-25T09:58:14.353Z,100543.36
2022-12-25T09:59:27.674Z,100550.50
2022-12-25T10:00:36.202Z,100546.84
2022-12-25T10:01:40.578Z,100546.84
2022-12-25T10:02:54.731Z,100549.42
2022-12-25T10:04:17.727Z,100554.69
2022-12-25T10:05:23.958Z,100547.55
2022-12-25T10:06:49.209Z,100541.41
2022-12-25T10:07:56.998Z,100550.91
2022-12-25T10:09:19.004Z,100545.64
2022-12-25T10:10:37.274Z,100544.03
2022-12-25T10:11:46.662Z,100542.00
2022-12-25T10:12:55.367Z,100552.33
2022-12-25T10:14:03.176Z,100545.56
2022-12-25T10:15:16.071Z,100548.06
2022-12-25T10:16:38.422Z,100557.45
2022-12-25T10:17:44.535Z,100549.66
2022-12-25T10:18:52.812Z,100545.41
2022-12-25T10:20:02.109Z,100543.45
2022-12-25T10:21:12.796Z,100542.90
2022-12-25T10:22:12.206Z,100539.46
2022-12-25T10:23:17.697Z,100545.48
2022-12-25T10:24:40.838Z,100549.00
2022-12-25T10:25:44.893Z,100541.92
2022-12-25T10:26:49.750Z,100547.05
2022-12-25T10:28:04.096Z,100544.55
2022-12-25T10:29:16.677Z,100546.03
2022-12-25T10:30:21.687Z,100541.66
2022-12-25T10:31:27.774Z,100547.59
2022-12-25T10:32:31.171Z,100554.52
2022-12-25T10:33:34.324Z,100555.41
2022-12-25T10:34:38.694Z,100545.75
2022-12-25T10:35:42.455Z,100542.89
2022-12-25T10:36:46.137Z,100550.88
2022-12-25T10:37:52.484Z,100540.39
2022-12-25T10:38:55.878Z,100551.78
2022-12-25T10:40:00.048Z,100554.36
2022-12-25T10:41:05.903Z,100556.04
2022-12-25T10:42:25.098Z,100556.39
2022-12-25T10:43:38.698Z,100552.68
2022-12-25T10:44:43.897Z,100549.31
2022-12-25T10:45:47.951Z,100552.91
2022-12-25T10:46:52.761Z,100560.03
2022-12-25T10:48:04.982Z,100560.19
2022-12-25T10:49:06.490Z,100556.31
2022-12-25T10:50:21.989Z,100551.19
2022-12-25T10:51:32.171Z,100556.59
2022-12-25T10:52:35.458Z,100565.98
2022-12-25T10:53:39.699Z,100560.54
2022-12-25T10:54:44.298Z,100555.72
2022-12-25T10:56:01.355Z,100553.02
2022-12-25T10:57:12.884Z,100564.56
2022-12-25T10:58:20.265Z,100568.36
2022-12-25T10:59:24.603Z,100571.64
2022-12-25T11:00:31.715Z,100570.91
2022-12-25T11:01:34.807Z,100562.34
2022-12-25T11:02:41.752Z,100570.28
2022-12-25T11:03:46.710Z,100573.64
2022-12-25T11:04:52.965Z,100571.02
2022-12-25T11:05:56.378Z,100571.80
2022-12-25T11:07:00.828Z,100570.05
2022-12-25T11:08:04.751Z,100564.88
2022-12-25T11:09:10.031Z,100564.02
2022-12-25T11:10:26.697Z,100574.47
2022-12-25T11:11:30.876Z,100571.84
2022-12-25T11:12:39.028Z,100577.05
2022-12-25T11:13:44.625Z,100570.83
2022-12-25T11:14:55.028Z,100565.50
2022-12-25T11:16:13.102Z,100577.00
2022-12-25T11:17:18.310Z,100576.89
2022-12-25T11:18:26.092Z,100574.03
2022-12-25T11:19:32.871Z,100576.89
2022-12-25T11:20:39.200Z,100576.77
2022-12-25T11:21:47.168Z,100581.94
2022-12-25T11:22:50.473Z,100583.61
2022-12-25T11:24:00.566Z,100589.64
2022-12-25T11:25:17.777Z,100584.55
2022-12-25T11:26:24.176Z,100592.61
2022-12-25T11:27:28.962Z,100597.11
2022-12-25T11:28:33.799Z,100582.98
2022-12-25T11:29:43.793Z,100596.99
2022-12-25T11:30:48.988Z,100596.99
2022-12-25T11:31:57.133Z,100596.05
2022-12-25T11:33:02.625Z,100602.83
2022-12-25T11:34:07.624Z,100602.00
2022-12-25T11:35:11.646Z,100604.67
2022-12-25T11:36:17.240Z,100602.16
2022-12-25T11:37:37.673Z,100602.12
2022-12-25T11:38:43.834Z,100611.70
2022-12-25T11:39:48.683Z,100607.25
2022-12-25T11:40:57.894Z,100608.03
2022-12-25T11:42:19.876Z,100608.77
2022-12-25T11:43:27.807Z,100607.00
2022-12-25T11:44:36.925Z,100613.39
2022-12-25T11:45:45.850Z,100609.75
2022-12-25T11:46:52.087Z,100612.12
2022-12-25T11:47:59.346Z,100613.19
2022-12-25T11:49:04.508Z,100614.20
2022-12-25T11:50:20.670Z,100612.72
2022-12-25T11:51:25.543Z,100611.04
2022-12-25T11:52:31.701Z,100608.38
2022-12-25T11:53:38.178Z,100615.42
2022-12-25T11:54:43.260Z,100615.30
2022-12-25T11:55:50.243Z,100616.16
2022-12-25T11:56:54.750Z,100613.66
2022-12-25T11:57:59.191Z,100617.92
2022-12-25T11:59:12.456Z,100621.17
2022-12-25T12:00:16.290Z,100614.91
2022-12-25T12:01:21.346Z,100618.39
2022-12-25T12:02:26.532Z,100615.73
2022-12-25T12:03:31.849Z,100616.83
2022-12-25T12:04:42.308Z,100617.84
2022-12-25T12:05:47.459Z,100618.55
2022-12-25T12:07:12.254Z,100616.08
2022-12-25T12:08:17.052Z,100626.42
2022-12-25T12:09:40.465Z,100622.97
2022-12-25T12:10:47.672Z,100628.22
2022-12-25T12:11:52.178Z,100635.92
2022-12-25T12:12:59.431Z,100634.13
2022-12-25T12:14:08.298Z,100629.82
2022-12-25T12:15:19.289Z,100630.64
2022-12-25T12:16:23.151Z,100634.94
2022-12-25T12:17:27.457Z,100630.56
2022-12-25T12:18:32.593Z,100628.61
2022-12-25T12:19:35.406Z,100637.41
2022-12-25T12:20:40.675Z,100637.56
2022-12-25T12:21:46.284Z,100640.34
2022-12-25T12:22:51.260Z,100640.53
2022-12-25T12:23:57.372Z,100642.14
2022-12-25T12:25:01.836Z,100637.69
2022-12-25T12:26:05.638Z,100644.77
2022-12-25T12:27:26.784Z,100643.23
2022-12-25T12:28:32.995Z,100639.67
2022-12-25T12:29:40.924Z,100644.09
2022-12-25T12:30:46.387Z,100632.71
2022-12-25T12:31:51.026Z,100645.59
2022-12-25T12:32:56.427Z,100643.16
2022-12-25T12:34:00.562Z,100641.36
2022-12-25T12:35:08.352Z,100653.68
2022-12-25T12:36:13.418Z,100648.40
2022-12-25T12:37:28.748Z,100654.47
2022-12-25T12:38:36.562Z,100651.02
2022-12-25T12:39:42.993Z,100652.00
2022-12-25T12:41:00.899Z,100659.67
2022-12-25T12:42:05.733Z,100655.14
2022-12-25T12:43:26.464Z,100669.19
2022-12-25T12:44:30.897Z,100670.16
2022-12-25T12:45:35.739Z,100663.94
2022-12-25T12:46:39.886Z,100671.61
2022-12-25T12:47:48.161Z,100670.91
2022-12-25T12:48:55.635Z,100672.78
2022-12-25T12:49:59.609Z,100672.97
2022-12-25T12:51:04.791Z,100671.17